createdAt,value
2022-12-09T00:01:38.293Z,17.97
2022-12-09T00:04:06.422Z,19.23
2022-12-09T00:06:34.435Z,18.07
2022-12-09T00:09:02.547Z,18.13
2022-12-09T00:11:30.745Z,18.27
2022-12-09T00:13:59.751Z,17.63
2022-12-09T00:16:27.899Z,17.70
2022-12-09T00:18:57.871Z,19.20
2022-12-09T00:21:28.658Z,19.30
2022-12-09T00:23:58.129Z,17.80
2022-12-09T00:26:27.763Z,18.93
2022-12-09T00:28:56.842Z,18.17
2022-12-09T00:31:26.365Z,17.73
2022-12-09T00:33:56.452Z,19.07
2022-12-09T00:36:25.746Z,19.10
2022-12-09T00:38:54.693Z,19.63
2022-12-09T00:41:23.071Z,18.80
2022-12-09T00:43:51.609Z,18.43
2022-12-09T00:46:19.801Z,19.10
2022-12-09T00:48:47.787Z,19.40
2022-12-09T00:51:17.729Z,19.57
2022-12-09T00:53:47.449Z,18.57
2022-12-09T00:56:15.384Z,19.77
2022-12-09T00:58:43.320Z,19.33
2022-12-09T01:01:11.269Z,18.27
2022-12-09T01:03:40.119Z,19.47
2022-12-09T01:06:11.879Z,19.23
2022-12-09T01:08:40.234Z,18.83
2022-12-09T01:11:14.398Z,19.40
2022-12-09T01:13:42.373Z,17.93
2022-12-09T01:16:16.038Z,18.63
2022-12-09T01:18:44.141Z,19.23
2022-12-09T01:21:12.129Z,18.87
2022-12-09T01:23:41.798Z,20.10
2022-12-09T01:26:09.993Z,18.97
2022-12-09T01:28:40.918Z,19.60
2022-12-09T01:31:10.169Z,19.17
2022-12-09T01:33:38.341Z,19.27
2022-12-09T01:36:07.487Z,18.53
2022-12-09T01:38:35.794Z,19.93
2022-12-09T01:41:03.889Z,19.93
2022-12-09T01:43:31.807Z,18.73
2022-12-09T01:46:01.665Z,19.27
2022-12-09T01:48:32.244Z,19.13
2022-12-09T01:51:03.510Z,19.33
2022-12-09T01:53:33.871Z,18.87
2022-12-09T01:56:09.516Z,18.70
2022-12-09T01:58:37.565Z,18.67
2022-12-09T02:01:07.240Z,18.53
2022-12-09T02:03:35.568Z,17.80
2022-12-09T02:06:03.930Z,20.27
2022-12-09T02:08:32.443Z,18.23
2022-12-09T02:11:06.901Z,18.80
2022-12-09T02:13:45.554Z,19.37
2022-12-09T02:16:18.718Z,19.13
2022-12-09T02:18:52.428Z,18.63
2022-12-09T02:21:24.497Z,19.30
2022-12-09T02:23:57.148Z,19.80
2022-12-09T02:26:29.124Z,19.50
2022-12-09T02:29:09.730Z,17.83
2022-12-09T02:31:54.187Z,19.73
2022-12-09T02:34:24.598Z,17.77
2022-12-09T02:37:04.976Z,17.80
2022-12-09T02:39:39.979Z,17.83
2022-12-09T02:42:09.989Z,18.13
2022-12-09T02:44:40.093Z,18.57
2022-12-09T02:47:12.591Z,19.03
2022-12-09T02:49:42.822Z,17.93
2022-12-09T02:52:12.223Z,18.17
2022-12-09T02:54:40.941Z,18.47
2022-12-09T02:57:14.061Z,18.03
2022-12-09T02:59:42.640Z,18.20
2022-12-09T03:02:18.803Z,17.87
2022-12-09T03:04:50.958Z,17.73
2022-12-09T03:07:24.708Z,18.37
2022-12-09T03:10:00.521Z,17.50
2022-12-09T03:12:29.934Z,18.37
2022-12-09T03:14:59.197Z,18.47
2022-12-09T03:17:31.860Z,18.57
2022-12-09T03:20:05.959Z,19.70
2022-12-09T03:22:36.427Z,18.73
2022-12-09T03:25:07.004Z,19.17
2022-12-09T03:27:39.986Z,17.33
2022-12-09T03:30:10.513Z,18.23
2022-12-09T03:32:39.624Z,19.03
2022-12-09T03:35:12.637Z,17.90
2022-12-09T03:37:42.976Z,19.43
2022-12-09T03:40:14.516Z,18.50
2022-12-09T03:42:47.337Z,18.20
2022-12-09T03:45:17.007Z,18.27
2022-12-09T03:47:45.267Z,18.90
2022-12-09T03:50:16.542Z,18.87
2022-12-09T03:52:46.675Z,18.00
2022-12-09T03:55:20.543Z,18.90
2022-12-09T03:57:51.520Z,17.83
2022-12-09T04:00:20.377Z,19.27
2022-12-09T04:02:48.639Z,18.50
2022-12-09T04:05:18.337Z,19.60
2022-12-09T04:07:46.404Z,18.73
2022-12-09T04:10:14.961Z,17.43
2022-12-09T04:12:42.861Z,20.13
2022-12-09T04:15:11.148Z,18.60
2022-12-09T04:17:39.316Z,19.80
2022-12-09T04:20:09.225Z,19.03
2022-12-09T04:22:38.862Z,20.27
2022-12-09T04:25:07.724Z,18.40
2022-12-09T04:27:35.750Z,18.70
2022-12-09T04:30:04.001Z,19.67
2022-12-09T04:32:33.700Z,18.50
2022-12-09T04:35:02.221Z,18.17
2022-12-09T04:37:30.276Z,20.23
2022-12-09T04:39:59.642Z,18.97
2022-12-09T04:42:29.763Z,19.53
2022-12-09T04:44:57.891Z,20.07
2022-12-09T04:47:25.845Z,20.23
2022-12-09T04:49:54.304Z,17.90
2022-12-09T04:52:22.246Z,18.70
2022-12-09T04:54:50.947Z,18.17
2022-12-09T04:57:20.800Z,19.20
2022-12-09T04:59:49.432Z,18.70
2022-12-09T05:02:17.664Z,18.43
2022-12-09T05:04:46.996Z,20.23
2022-12-09T05:07:15.486Z,19.47
2022-12-09T05:09:43.836Z,19.20
2022-12-09T05:12:12.068Z,18.97
2022-12-09T05:14:41.694Z,18.60
2022-12-09T05:17:09.651Z,19.63
2022-12-09T05:19:38.351Z,19.93
2022-12-09T05:22:06.470Z,19.57
2022-12-09T05:24:34.459Z,19.80
2022-12-09T05:27:02.772Z,18.30
2022-12-09T05:29:31.000Z,19.80
2022-12-09T05:32:00.397Z,20.03
2022-12-09T05:34:28.697Z,21.17
2022-12-09T05:36:57.294Z,19.63
2022-12-09T05:39:25.700Z,20.53
2022-12-09T05:41:53.896Z,21.43
2022-12-09T05:44:22.027Z,21.23
2022-12-09T05:46:50.038Z,21.13
2022-12-09T05:49:19.526Z,23.40
2022-12-09T05:51:47.886Z,20.73
2022-12-09T05:54:15.907Z,22.57
2022-12-09T05:56:48.126Z,21.10
2022-12-09T05:59:16.973Z,21.43
2022-12-09T06:01:45.182Z,21.47
2022-12-09T06:04:13.247Z,21.40
2022-12-09T06:06:43.295Z,22.10
2022-12-09T06:09:12.170Z,21.07
2022-12-09T06:11:41.196Z,20.70
2022-12-09T06:14:11.329Z,21.10
2022-12-09T06:16:39.974Z,20.13
2022-12-09T06:19:08.400Z,20.50
2022-12-09T06:21:36.552Z,20.30
2022-12-09T06:24:08.068Z,20.03
2022-12-09T06:26:36.276Z,19.87
2022-12-09T06:29:04.866Z,19.00
2022-12-09T06:31:33.417Z,19.90
2022-12-09T06:34:02.313Z,18.83
2022-12-09T06:36:32.101Z,19.57
2022-12-09T06:39:07.639Z,19.30
2022-12-09T06:41:40.800Z,18.60
2022-12-09T06:44:09.127Z,20.43
2022-12-09T06:46:37.569Z,19.67
2022-12-09T06:49:05.819Z,18.37
2022-12-09T06:51:34.475Z,21.50
2022-12-09T06:54:02.444Z,20.73
2022-12-09T06:56:32.665Z,20.30
2022-12-09T06:59:02.197Z,20.20
2022-12-09T07:01:30.102Z,19.10
2022-12-09T07:03:58.521Z,19.47
2022-12-09T07:06:28.731Z,19.60
2022-12-09T07:08:58.468Z,19.17
2022-12-09T07:11:27.209Z,21.60
2022-12-09T07:13:55.571Z,21.23
2022-12-09T07:16:25.675Z,20.10
2022-12-09T07:18:54.019Z,20.77
2022-12-09T07:21:24.026Z,18.53
2022-12-09T07:23:52.548Z,19.70
2022-12-09T07:26:21.440Z,20.40
2022-12-09T07:28:50.576Z,21.30
2022-12-09T07:31:21.163Z,20.30
2022-12-09T07:33:51.596Z,21.10
2022-12-09T07:36:21.507Z,21.63
2022-12-09T07:38:50.498Z,21.17
2022-12-09T07:41:19.408Z,21.33
2022-12-09T07:43:48.197Z,24.50
2022-12-09T07:46:18.200Z,25.07
2022-12-09T07:48:47.157Z,21.30
2022-12-09T07:51:17.137Z,22.87
2022-12-09T07:53:45.410Z,21.40
2022-12-09T07:56:14.811Z,23.20
2022-12-09T07:58:43.926Z,22.80
2022-12-09T08:01:14.153Z,21.13
2022-12-09T08:03:42.772Z,20.70
2022-12-09T08:06:14.004Z,21.23
2022-12-09T08:08:44.266Z,19.47
2022-12-09T08:11:14.623Z,20.43
2022-12-09T08:13:43.159Z,20.03
2022-12-09T08:16:13.420Z,20.37
2022-12-09T08:18:42.961Z,19.80
2022-12-09T08:21:13.254Z,19.50
2022-12-09T08:23:43.442Z,20.97
2022-12-09T08:26:12.714Z,19.97
2022-12-09T08:28:41.193Z,20.63
2022-12-09T08:31:10.347Z,19.63
2022-12-09T08:33:38.989Z,20.83
2022-12-09T08:36:13.183Z,20.63
2022-12-09T08:38:41.401Z,21.53
2022-12-09T08:41:12.633Z,20.70
2022-12-09T08:43:41.359Z,21.70
2022-12-09T08:46:09.560Z,21.93
2022-12-09T08:48:38.085Z,22.63
2022-12-09T08:51:07.876Z,23.43
2022-12-09T08:53:35.926Z,22.87
2022-12-09T08:56:11.141Z,24.03
2022-12-09T08:58:39.513Z,21.17
2022-12-09T09:01:08.053Z,21.23
2022-12-09T09:03:36.462Z,20.07
2022-12-09T09:06:09.539Z,19.63
2022-12-09T09:08:39.238Z,20.53
2022-12-09T09:11:12.367Z,19.17
2022-12-09T09:13:41.635Z,19.57
2022-12-09T09:16:11.786Z,20.10
2022-12-09T09:18:41.011Z,19.50
2022-12-09T09:21:10.561Z,20.60
2022-12-09T09:23:38.871Z,19.70
2022-12-09T09:26:13.137Z,20.63
2022-12-09T09:28:41.871Z,18.77
2022-12-09T09:31:12.503Z,18.67
2022-12-09T09:33:40.722Z,19.40
2022-12-09T09:36:11.676Z,18.87
2022-12-09T09:38:40.244Z,19.23
2022-12-09T09:41:16.627Z,17.93
2022-12-09T09:43:46.527Z,18.23
2022-12-09T09:46:18.340Z,18.03
2022-12-09T09:48:47.795Z,18.40
2022-12-09T09:51:18.472Z,18.50
2022-12-09T09:53:46.772Z,18.47
2022-12-09T09:56:21.881Z,18.80
2022-12-09T09:58:57.437Z,19.40
2022-12-09T10:01:28.822Z,18.97
2022-12-09T10:04:00.603Z,19.47
2022-12-09T10:06:39.248Z,19.23
2022-12-09T10:09:14.501Z,19.00
2022-12-09T10:11:54.924Z,19.23
2022-12-09T10:14:34.060Z,18.50
2022-12-09T10:17:08.458Z,16.60
2022-12-09T10:19:37.803Z,17.83
2022-12-09T10:22:13.524Z,16.80
2022-12-09T10:24:47.718Z,16.33
2022-12-09T10:27:21.953Z,17.50
2022-12-09T10:29:57.703Z,16.10
2022-12-09T10:32:28.837Z,15.80
2022-12-09T10:34:57.149Z,17.23
2022-12-09T10:37:29.906Z,16.17
2022-12-09T10:40:16.417Z,16.27
2022-12-09T10:43:05.687Z,16.00
2022-12-09T10:46:15.159Z,14.83
2022-12-09T10:48:33.033Z,15.10
2022-12-09T10:51:04.273Z,15.03
2022-12-09T10:53:33.869Z,11.67
2022-12-09T10:56:02.781Z,11.90
2022-12-09T10:58:32.580Z,13.23
2022-12-09T11:01:06.185Z,11.37
2022-12-09T11:03:36.636Z,11.23
2022-12-09T11:06:16.491Z,11.30
2022-12-09T11:08:51.726Z,10.37
2022-12-09T11:11:20.682Z,9.27
2022-12-09T11:13:48.878Z,8.40
2022-12-09T11:16:18.190Z,9.07
2022-12-09T11:18:48.363Z,8.63
2022-12-09T11:21:35.012Z,9.40
2022-12-09T11:24:04.861Z,10.85
2022-12-09T11:26:36.650Z,12.30
2022-12-09T11:29:07.544Z,13.67
2022-12-09T11:31:41.173Z,13.27
2022-12-09T11:34:17.746Z,14.80
2022-12-09T11:36:49.451Z,14.87
2022-12-09T11:39:29.404Z,13.83
2022-12-09T11:42:19.456Z,14.90
2022-12-09T11:44:56.551Z,16.03
2022-12-09T11:47:50.260Z,16.27
2022-12-09T11:50:23.888Z,16.27
2022-12-09T11:53:08.099Z,16.87
2022-12-09T11:55:37.531Z,17.47
2022-12-09T11:58:07.671Z,17.40
2022-12-09T12:00:39.278Z,18.40
2022-12-09T12:03:15.376Z,17.43
2022-12-09T12:05:45.150Z,15.80
2022-12-09T12:08:19.572Z,16.27
2022-12-09T12:10:52.600Z,15.27
2022-12-09T12:13:23.611Z,16.23
2022-12-09T12:15:55.080Z,16.73
2022-12-09T12:18:24.503Z,16.30
2022-12-09T12:21:22.945Z,16.17
2022-12-09T12:24:15.676Z,16.40
2022-12-09T12:26:50.828Z,16.07
2022-12-09T12:29:26.424Z,16.93
2022-12-09T12:32:13.981Z,15.67
2022-12-09T12:34:49.990Z,17.27
2022-12-09T12:37:29.103Z,17.03
2022-12-09T12:40:04.562Z,16.67
2022-12-09T12:42:40.542Z,16.53
2022-12-09T12:45:32.922Z,16.57
2022-12-09T12:48:03.642Z,17.40
2022-12-09T12:50:44.763Z,17.90
2022-12-09T12:53:23.384Z,18.27
2022-12-09T12:55:58.122Z,17.60
2022-12-09T12:58:39.991Z,18.33
2022-12-09T13:01:15.593Z,17.40
2022-12-09T13:03:51.972Z,17.30
2022-12-09T13:06:36.830Z,17.93
2022-12-09T13:09:10.474Z,17.53
2022-12-09T13:11:46.179Z,17.80
2022-12-09T13:14:17.129Z,18.33
2022-12-09T13:16:45.976Z,17.80
2022-12-09T13:19:17.327Z,17.67
2022-12-09T13:21:47.058Z,18.23
2022-12-09T13:24:21.769Z,18.43
2022-12-09T13:26:53.385Z,19.13
2022-12-09T13:29:38.482Z,17.90
2022-12-09T13:32:20.290Z,20.13
2022-12-09T13:34:51.511Z,19.10
2022-12-09T13:38:00.748Z,18.57
2022-12-09T13:40:32.449Z,19.60
2022-12-09T13:43:13.511Z,19.83
2022-12-09T13:45:50.685Z,21.43
2022-12-09T13:48:44.396Z,21.07
2022-12-09T13:51:12.473Z,21.17
2022-12-09T13:53:46.456Z,21.27
2022-12-09T13:56:22.709Z,21.33
2022-12-09T13:59:43.946Z,20.53
2022-12-09T14:02:23.278Z,20.90
2022-12-09T14:05:00.034Z,21.17
2022-12-09T14:07:33.712Z,21.50
2022-12-09T14:10:03.404Z,21.27
2022-12-09T14:13:03.684Z,21.60
2022-12-09T14:15:37.608Z,20.80
2022-12-09T14:18:16.316Z,20.73
2022-12-09T14:20:44.163Z,22.07
2022-12-09T14:23:19.308Z,22.63
2022-12-09T14:26:09.097Z,23.20
2022-12-09T14:28:42.077Z,22.57
2022-12-09T14:31:10.284Z,21.93
2022-12-09T14:33:39.840Z,22.73
2022-12-09T14:36:20.590Z,24.07
2022-12-09T14:39:22.565Z,24.33
2022-12-09T14:41:47.438Z,23.83
2022-12-09T14:44:22.482Z,23.80
2022-12-09T14:46:54.380Z,24.47
2022-12-09T14:49:24.922Z,24.33
2022-12-09T14:51:55.434Z,24.57
2022-12-09T14:54:25.086Z,24.07
2022-12-09T14:56:57.600Z,24.77
2022-12-09T14:59:27.008Z,26.27
2022-12-09T15:01:57.188Z,23.27
2022-12-09T15:04:29.965Z,23.07
2022-12-09T15:07:16.426Z,23.27
2022-12-09T15:09:55.815Z,23.00
2022-12-09T15:12:27.844Z,23.83
2022-12-09T15:14:58.668Z,22.50
2022-12-09T15:17:29.083Z,23.00
2022-12-09T15:20:00.625Z,24.03
2022-12-09T15:22:40.036Z,24.77
2022-12-09T15:25:17.851Z,23.47
2022-12-09T15:27:56.354Z,24.43
2022-12-09T15:30:26.337Z,24.17
2022-12-09T15:32:54.285Z,22.87
2022-12-09T15:35:24.962Z,22.53
2022-12-09T15:37:54.020Z,23.80
2022-12-09T15:40:23.032Z,24.07
2022-12-09T15:42:53.959Z,24.30
2022-12-09T15:45:23.785Z,23.87
2022-12-09T15:47:54.219Z,25.10
2022-12-09T15:50:24.229Z,24.97
2022-12-09T15:52:53.380Z,24.00
2022-12-09T15:55:23.623Z,24.13
2022-12-09T15:57:54.555Z,25.67
2022-12-09T16:00:22.648Z,23.37
2022-12-09T16:02:51.119Z,23.47
2022-12-09T16:05:24.024Z,30.07
2022-12-09T16:07:57.278Z,25.97
2022-12-09T16:10:27.017Z,26.13
2022-12-09T16:13:08.922Z,24.83
2022-12-09T16:15:47.033Z,22.43
2022-12-09T16:18:18.808Z,25.43
2022-12-09T16:20:57.767Z,23.30
2022-12-09T16:23:26.874Z,22.57
2022-12-09T16:26:04.795Z,22.23
2022-12-09T16:28:36.116Z,22.80
2022-12-09T16:31:18.385Z,23.33
2022-12-09T16:33:48.876Z,23.97
2022-12-09T16:36:19.721Z,24.13
2022-12-09T16:39:05.397Z,24.77
2022-12-09T16:42:01.612Z,23.50
2022-12-09T16:44:34.925Z,21.57
2022-12-09T16:47:14.774Z,21.63
2022-12-09T16:49:44.178Z,22.10
2022-12-09T16:52:14.290Z,21.40
2022-12-09T16:54:43.647Z,21.70
2022-12-09T16:57:15.643Z,22.13
2022-12-09T16:59:44.018Z,28.77
2022-12-09T17:02:20.093Z,22.27
2022-12-09T17:04:49.012Z,21.30
2022-12-09T17:07:16.846Z,22.27
2022-12-09T17:09:44.732Z,22.60
2022-12-09T17:12:13.954Z,23.17
2022-12-09T17:14:41.890Z,24.07
2022-12-09T17:17:09.955Z,22.97
2022-12-09T17:19:38.502Z,22.67
2022-12-09T17:22:06.410Z,21.50
2022-12-09T17:24:34.300Z,21.57
2022-12-09T17:27:02.196Z,21.37
2022-12-09T17:29:31.480Z,20.93
2022-12-09T17:31:59.361Z,21.67
2022-12-09T17:34:27.581Z,21.57
2022-12-09T17:36:56.055Z,21.13
2022-12-09T17:39:24.727Z,21.57
2022-12-09T17:41:52.671Z,20.73
2022-12-09T17:44:21.319Z,20.23
2022-12-09T17:46:51.032Z,19.97
2022-12-09T17:49:19.062Z,21.47
2022-12-09T17:51:47.226Z,22.03
2022-12-09T17:54:15.103Z,19.63
2022-12-09T17:56:43.005Z,19.53
2022-12-09T17:59:16.778Z,19.07
2022-12-09T18:01:46.230Z,19.33
2022-12-09T18:04:15.965Z,20.37
2022-12-09T18:06:44.861Z,19.33
2022-12-09T18:09:14.516Z,19.17
2022-12-09T18:11:42.795Z,19.10
2022-12-09T18:14:10.901Z,19.57
2022-12-09T18:16:38.889Z,18.83
2022-12-09T18:19:09.853Z,20.07
2022-12-09T18:21:39.347Z,19.70
2022-12-09T18:24:07.695Z,20.20
2022-12-09T18:26:41.374Z,19.77
2022-12-09T18:29:09.975Z,20.00
2022-12-09T18:31:37.756Z,19.13
2022-12-09T18:34:05.577Z,19.83
2022-12-09T18:36:33.366Z,20.80
2022-12-09T18:39:02.510Z,20.17
2022-12-09T18:41:31.758Z,19.90
2022-12-09T18:44:06.120Z,19.60
2022-12-09T18:46:36.220Z,19.77
2022-12-09T18:49:07.203Z,18.77
2022-12-09T18:51:35.574Z,20.07
2022-12-09T18:54:05.496Z,18.87
2022-12-09T18:56:34.144Z,20.30
2022-12-09T18:59:07.051Z,20.20
2022-12-09T19:01:39.016Z,20.73
2022-12-09T19:04:08.583Z,20.23
2022-12-09T19:06:37.714Z,19.30
2022-12-09T19:09:08.921Z,20.10
2022-12-09T19:11:38.086Z,21.10
2022-12-09T19:14:07.008Z,21.60
2022-12-09T19:16:35.075Z,20.60
2022-12-09T19:19:09.215Z,21.43
2022-12-09T19:21:38.096Z,21.63
2022-12-09T19:24:08.497Z,22.13
2022-12-09T19:26:37.417Z,23.03
2022-12-09T19:29:06.617Z,21.80
2022-12-09T19:31:37.323Z,21.93
2022-12-09T19:34:06.941Z,20.37
2022-12-09T19:36:35.003Z,22.30
2022-12-09T19:39:03.483Z,22.00
2022-12-09T19:41:33.224Z,21.40
2022-12-09T19:44:02.879Z,22.17
2022-12-09T19:46:30.776Z,21.83
2022-12-09T19:48:59.313Z,22.13
2022-12-09T19:51:27.977Z,21.00
2022-12-09T19:53:56.836Z,23.23
2022-12-09T19:56:24.936Z,22.80
2022-12-09T19:58:54.465Z,22.93
2022-12-09T20:01:23.825Z,23.60
2022-12-09T20:03:52.945Z,25.93
2022-12-09T20:06:21.824Z,23.43
2022-12-09T20:08:50.090Z,23.17
2022-12-09T20:11:20.034Z,25.23
2022-12-09T20:13:48.233Z,23.60
2022-12-09T20:16:19.030Z,25.47
2022-12-09T20:18:48.480Z,24.37
2022-12-09T20:21:17.715Z,24.53
2022-12-09T20:23:46.362Z,24.60
2022-12-09T20:26:15.822Z,25.37
2022-12-09T20:28:45.064Z,26.50
2022-12-09T20:31:14.427Z,24.93
2022-12-09T20:33:43.697Z,25.50
2022-12-09T20:36:13.356Z,24.70
2022-12-09T20:38:41.500Z,25.47
2022-12-09T20:41:11.143Z,24.27
2022-12-09T20:43:40.251Z,25.70
2022-12-09T20:46:09.128Z,26.30
2022-12-09T20:48:37.969Z,27.13
2022-12-09T20:51:08.560Z,28.33
2022-12-09T20:53:37.310Z,26.90
2022-12-09T20:56:05.525Z,28.47
2022-12-09T20:58:33.323Z,27.83
2022-12-09T21:01:05.988Z,28.93
2022-12-09T21:03:33.873Z,26.80
2022-12-09T21:06:01.657Z,27.50
2022-12-09T21:08:31.927Z,28.17
2022-12-09T21:11:04.338Z,28.87
2022-12-09T21:13:32.122Z,28.60
2022-12-09T21:16:07.066Z,28.73
2022-12-09T21:18:35.541Z,29.30
2022-12-09T21:21:03.414Z,29.37
2022-12-09T21:23:34.435Z,28.43
2022-12-09T21:26:06.508Z,26.73
2022-12-09T21:28:34.362Z,26.43
2022-12-09T21:31:08.223Z,26.57
2022-12-09T21:33:36.942Z,25.10
2022-12-09T21:36:06.738Z,27.10
2022-12-09T21:38:37.421Z,27.03
2022-12-09T21:41:06.208Z,29.07
2022-12-09T21:43:34.409Z,28.33
2022-12-09T21:46:03.373Z,28.43
2022-12-09T21:48:32.028Z,28.53
2022-12-09T21:51:01.020Z,26.97
2022-12-09T21:53:29.311Z,27.17
2022-12-09T21:56:03.525Z,28.17
2022-12-09T21:58:32.325Z,25.93
2022-12-09T22:01:00.891Z,27.53
2022-12-09T22:03:28.776Z,28.87
2022-12-09T22:05:58.433Z,29.60
2022-12-09T22:08:27.067Z,28.07
2022-12-09T22:10:54.853Z,29.10
2022-12-09T22:13:24.033Z,29.40
2022-12-09T22:15:51.869Z,31.80
2022-12-09T22:18:19.920Z,28.53
2022-12-09T22:21:23.689Z,28.17
2022-12-09T22:23:35.841Z,28.30
2022-12-09T22:26:06.473Z,29.10
2022-12-09T22:28:36.284Z,30.13
2022-12-09T22:31:10.137Z,29.87
2022-12-09T22:33:37.962Z,31.27
2022-12-09T22:36:06.478Z,29.90
2022-12-09T22:38:34.767Z,33.67
2022-12-09T22:41:04.663Z,32.00
2022-12-09T22:43:37.904Z,33.50
2022-12-09T22:46:09.099Z,34.37
2022-12-09T22:48:37.017Z,33.87
2022-12-09T22:51:05.990Z,36.13
2022-12-09T22:53:34.562Z,35.57
2022-12-09T22:56:02.358Z,37.23
2022-12-09T22:58:30.196Z,34.87
2022-12-09T23:00:58.018Z,34.43
2022-12-09T23:03:27.600Z,34.70
2022-12-09T23:05:56.527Z,35.27
2022-12-09T23:08:24.459Z,33.37
2022-12-09T23:10:52.340Z,34.83
2022-12-09T23:13:20.119Z,33.10
2022-12-09T23:15:47.898Z,33.17
2022-12-09T23:18:15.715Z,34.13
2022-12-09T23:20:44.937Z,32.37
2022-12-09T23:23:12.770Z,31.17
2022-12-09T23:25:41.606Z,31.87
2022-12-09T23:28:11.455Z,33.83
2022-12-09T23:30:39.361Z,33.00
2022-12-09T23:33:07.116Z,31.83
2022-12-09T23:35:38.515Z,31.60
2022-12-09T23:38:07.603Z,31.03
2022-12-09T23:40:35.385Z,32.13
2022-12-09T23:43:03.425Z,31.40
2022-12-09T23:45:31.338Z,30.30
2022-12-09T23:47:59.281Z,32.03
2022-12-09T23:50:27.049Z,32.27
2022-12-09T23:52:54.791Z,32.53
2022-12-09T23:55:23.964Z,32.73
2022-12-09T23:57:51.729Z,30.37
